Flight Track Log - Related Links

Times and Time Zones

All times are in EDT time to prevent confusion due to time zone crossing. See the N25HB flight status page for this flight to view local times or setup timezone preferences in your user account.

Time Position Orientation Groundspeed Altitude Reporting Facility
EDT Latitude Longitude Course Direction KTS MPH feet Rate Location/Type
Mon 12:54:16 PM 33.7792 -78.6975 201° Southwest 163 188 2,700  Level Jacksonville Center
Mon 12:55:16 PM 33.7494 -78.7414 231° Southwest 164 189 3,900 1,250 Climbing Jacksonville Center
Mon 12:56:16 PM 33.7236 -78.7800 231° Southwest 159 183 5,200 1,350 Climbing Jacksonville Center
Mon 12:57:16 PM 33.7019 -78.8211 238° Southwest 164 189 6,600 1,200 Climbing Jacksonville Center
Mon 12:58:00 PM 33.6063 -79.0024 225° Southwest  Level FlightAware Approximate
Mon 12:58:16 PM 33.6719 -78.8597 227° Southwest 164 189 7,600  Level Jacksonville Center
Mon 12:59:16 PM 33.6458 -78.8983 231° Southwest 159 183 8,900 1,250 Climbing Jacksonville Center
Mon 01:00:16 PM 33.6219 -78.9369 233° Southwest 159 183 10,100 1,150 Climbing Jacksonville Center
Mon 01:01:16 PM 33.5983 -78.9803 237° Southwest 159 183 11,200 1,250 Climbing Jacksonville Center
Mon 01:02:16 PM 33.5747 -79.0211 235° Southwest 159 183 12,600 1,400 Climbing Jacksonville Center
Mon 01:03:16 PM 33.5486 -79.0547 227° Southwest 153 176 14,000 1,300 Climbing Jacksonville Center
Mon 01:04:16 PM 33.5264 -79.0831 227° Southwest 143 165 15,200 1,000 Climbing Jacksonville Center
Mon 01:05:16 PM 33.5067 -79.1164 235° Southwest 138 159 16,000 400 Climbing Jacksonville Center
Mon 01:06:16 PM 33.4825 -79.1522 231° Southwest 138 159 16,000  Level Jacksonville Center
Mon 01:07:16 PM 33.4525 -79.1983 232° Southwest 157 181 16,000  Level Jacksonville Center
Mon 01:08:16 PM 33.4228 -79.2469 234° Southwest 173 199 16,000  Level Jacksonville Center
Mon 01:09:16 PM 33.3908 -79.2978 233° Southwest 185 213 16,000  Level Jacksonville Center
Mon 01:10:16 PM 33.3608 -79.3439 232° Southwest 185 213 16,000  Level Jacksonville Center
Mon 01:11:16 PM 33.3267 -79.3925 230° Southwest 190 219 16,000  Level Jacksonville Center
Mon 01:12:16 PM 33.2925 -79.4411 230° Southwest 190 219 16,000  Level Jacksonville Center
Mon 01:13:16 PM 33.2583 -79.4919 231° Southwest 190 219 16,000  Level Jacksonville Center
Mon 01:14:16 PM 33.2264 -79.5428 233° Southwest 190 219 16,000  Level Jacksonville Center
Mon 01:15:16 PM 33.1922 -79.5914 230° Southwest 190 219 16,000  Level Jacksonville Center
Mon 01:16:16 PM 33.1581 -79.6447 233° Southwest 190 219 16,000  Level Jacksonville Center
Mon 01:17:16 PM 33.1239 -79.6931 230° Southwest 195 224 16,000  Level Jacksonville Center
Mon 01:18:16 PM 33.0875 -79.7439 229° Southwest 195 224 16,000  Level Jacksonville Center
Mon 01:19:16 PM 33.0533 -79.7972 233° Southwest 201 231 16,000  Level Jacksonville Center
Mon 01:20:16 PM 33.0169 -79.8456 228° Southwest 201 231 16,000  Level Jacksonville Center
Mon 01:21:16 PM 32.9850 -79.8986 234° Southwest 201 231 16,000  Level Jacksonville Center
Mon 01:22:16 PM 32.9506 -79.9517 232° Southwest 201 231 16,000  Level Jacksonville Center
Mon 01:23:16 PM 32.9164 -80.0022 231° Southwest 201 231 16,000  Level Jacksonville Center
Mon 01:24:16 PM 32.8819 -80.0528 231° Southwest 201 231 16,000  Level Jacksonville Center
Mon 01:25:16 PM 32.8392 -80.0986 222° Southwest 201 231 16,000  Level Jacksonville Center
Mon 01:26:16 PM 32.8025 -80.1419 225° Southwest 206 237 16,000  Level Jacksonville Center
Mon 01:27:16 PM 32.7597 -80.1878 222° Southwest 206 237 16,000  Level Jacksonville Center
Mon 01:28:16 PM 32.7189 -80.2333 223° Southwest 211 243 16,000  Level Jacksonville Center
Mon 01:29:16 PM 32.6739 -80.2767 219° Southwest 211 243 16,000  Level Jacksonville Center
Mon 01:30:16 PM 32.6311 -80.3222 222° Southwest 211 243 16,000  Level Jacksonville Center
Mon 01:31:16 PM 32.5903 -80.3653 222° Southwest 211 243 16,000  Level Jacksonville Center
Mon 01:32:16 PM 32.5472 -80.4108 222° Southwest 211 243 16,000  Level Jacksonville Center
Mon 01:33:16 PM 32.5064 -80.4564 223° Southwest 211 243 16,000  Level Jacksonville Center
Mon 01:34:16 PM 32.4656 -80.5017 223° Southwest 211 243 16,000  Level Jacksonville Center
Mon 01:35:16 PM 32.4225 -80.5497 223° Southwest 211 243 16,000  Level Jacksonville Center
Mon 01:36:16 PM 32.3794 -80.5950 222° Southwest 211 243 16,000  Level Jacksonville Center
Mon 01:37:16 PM 32.3386 -80.6428 225° Southwest 211 243 16,000  Level Jacksonville Center
Mon 01:38:16 PM 32.2936 -80.6881 220° Southwest 211 243 16,000  Level Jacksonville Center
Mon 01:39:16 PM 32.2525 -80.7333 223° Southwest 211 243 16,000  Level Jacksonville Center
Mon 01:40:16 PM 32.2033 -80.7811 219° Southwest 211 243 16,000  Level Jacksonville Center
Mon 01:41:16 PM 32.1475 -80.8144 207° Southwest 222 255 16,000  Level Jacksonville Center
Mon 01:42:16 PM 32.0997 -80.8422 206° Southwest 222 255 16,000  Level Jacksonville Center
Mon 01:43:16 PM 32.0378 -80.8781 206° Southwest 222 255 16,000  Level Jacksonville Center
Mon 01:44:16 PM 31.9881 -80.9086 208° Southwest 222 255 16,000  Level Jacksonville Center
Mon 01:45:16 PM 31.9283 -80.9467 208° Southwest 222 255 16,000  Level Jacksonville Center
Mon 01:46:16 PM 31.8744 -80.9769 206° Southwest 222 255 16,000  Level Jacksonville Center
Mon 01:47:16 PM 31.8228 -81.0075 207° Southwest 222 255 16,000  Level Jacksonville Center
Mon 01:48:16 PM 31.7625 -81.0403 205° Southwest 217 250 16,000  Level Jacksonville Center
Mon 01:49:16 PM 31.7086 -81.0708 206° Southwest 217 250 16,000  Level Jacksonville Center
Mon 01:50:16 PM 31.6592 -81.1011 208° Southwest 217 250 16,000  Level Jacksonville Center
Mon 01:51:16 PM 31.5989 -81.1364 206° Southwest 222 255 16,000  Level Jacksonville Center
Mon 01:52:16 PM 31.5453 -81.1714 209° Southwest 222 255 16,000 50 Level Jacksonville Center
Mon 01:53:16 PM 31.4975 -81.1992 206° Southwest 217 250 16,100  Climbing Jacksonville Center
Mon 01:54:16 PM 31.4394 -81.2344 207° Southwest 217 250 16,000  Descending Jacksonville Center
Mon 01:55:16 PM 31.3919 -81.2619 206° Southwest 217 250 16,100 50 Climbing Jacksonville Center
Mon 01:56:16 PM 31.3319 -81.2994 208° Southwest 222 255 16,100  Level Jacksonville Center
Mon 01:57:16 PM 31.2822 -81.3367 213° Southwest 216 249 16,100 -50 Level Jacksonville Center
Mon 01:58:16 PM 31.2283 -81.3644 204° Southwest 216 249 16,000 -50 Descending Jacksonville Center
Mon 01:59:16 PM 31.1744 -81.3992 209° Southwest 216 249 16,000  Level Jacksonville Center
Mon 02:00:16 PM 31.1225 -81.4292 206° Southwest 216 249 16,000 50 Level Jacksonville Center
Mon 02:01:16 PM 31.0686 -81.4592 205° Southwest 216 249 16,100  Climbing Jacksonville Center
Mon 02:02:16 PM 31.0144 -81.4842 202° Southwest 216 249 16,000 -50 Descending Jacksonville Center
Mon 02:03:16 PM 30.9628 -81.5164 208° Southwest 216 249 16,000  Level Jacksonville Center
Mon 02:05:16 PM 30.8506 -81.5689 202° Southwest 216 249 16,000 33 Level Jacksonville Center
Mon 02:06:16 PM 30.7881 -81.5769 186° South 216 249 16,100  Climbing Jacksonville Center
Mon 02:07:16 PM 30.7253 -81.5853 187° South 227 261 16,000 -50 Descending Jacksonville Center
Mon 02:08:16 PM 30.6650 -81.5933 187° South 227 261 16,000  Level Jacksonville Center
Mon 02:09:16 PM 30.6025 -81.6014 186° South 232 267 16,000 50 Level Jacksonville Center
Mon 02:10:16 PM 30.5378 -81.6094 186° South 232 267 16,100 50 Climbing Jacksonville Center
Mon 02:11:16 PM 30.4772 -81.6175 187° South 232 267 16,100  Level Jacksonville Center
Mon 02:12:16 PM 30.4167 -81.6208 183° South 232 267 16,100  Level Jacksonville Center
Mon 02:13:16 PM 30.3606 -81.6286 187° South 232 267 16,100  Level Jacksonville Center
Mon 02:14:16 PM 30.3000 -81.6319 183° South 232 267 16,100  Level Jacksonville Center
Mon 02:15:16 PM 30.2394 -81.6375 185° South 232 267 16,100  Level Jacksonville Center
Mon 02:16:16 PM 30.1769 -81.6456 186° South 227 261 16,100  Level Jacksonville Center
Mon 02:17:16 PM 30.1186 -81.6511 185° South 222 255 16,100  Level Jacksonville Center
Mon 02:18:16 PM 30.0558 -81.6567 184° South 222 255 16,100  Level Jacksonville Center
Mon 02:19:16 PM 29.9956 -81.6622 185° South 222 255 16,100  Level Jacksonville Center
Mon 02:20:16 PM 29.9328 -81.6703 186° South 222 255 16,100  Level Jacksonville Center
Mon 02:21:16 PM 29.8703 -81.6758 184° South 222 255 16,100  Level Jacksonville Center
Mon 02:22:16 PM 29.8097 -81.6814 185° South 222 255 16,100  Level Jacksonville Center
Mon 02:23:16 PM 29.7472 -81.6869 184° South 222 255 16,100  Level Jacksonville Center
Mon 02:24:16 PM 29.6867 -81.6925 185° South 222 255 16,100  Level Jacksonville Center
Mon 02:25:16 PM 29.6219 -81.6981 184° South 222 255 16,100 350 Level Jacksonville Center
Mon 02:26:16 PM 29.5658 -81.7036 185° South 216 249 16,800 500 Climbing Jacksonville Center
Mon 02:27:16 PM 29.5114 -81.7067 183° South 211 243 17,100 150 Climbing Jacksonville Center
Mon 02:28:16 PM 29.4531 -81.7144 187° South 211 243 17,100  Level Jacksonville Center
Mon 02:29:16 PM 29.3947 -81.7222 187° South 211 243 17,100  Level Jacksonville Center
Mon 02:30:16 PM 29.3322 -81.7303 186° South 222 255 17,100  Level Jacksonville Center
Mon 02:31:16 PM 29.2717 -81.7356 184° South 222 255 17,100  Level Jacksonville Center
Mon 02:32:16 PM 29.2069 -81.7411 184° South 222 255 17,100  Level Jacksonville Center
Mon 02:33:16 PM 29.1425 -81.7514 188° South 222 255 17,100  Level Jacksonville Center
Mon 02:34:16 PM 29.0842 -81.7617 189° South 222 255 17,100  Level Jacksonville Center
Mon 02:35:16 PM 29.0236 -81.7647 183° South 222 255 17,100  Level Jacksonville Center
Mon 02:36:16 PM 28.9611 -81.7725 186° South 222 255 17,100  Level Jacksonville Center
Mon 02:37:16 PM 28.8983 -81.7756 182° South 222 255 17,100  Level Jacksonville Center
Mon 02:38:16 PM 28.8400 -81.7833 187° South 217 250 17,100  Level Jacksonville Center
Mon 02:39:16 PM 28.7797 -81.7911 186° South 217 250 17,100  Level Jacksonville Center
Mon 02:40:16 PM 28.7169 -81.7964 184° South 217 250 17,100  Level Jacksonville Center
Mon 02:41:16 PM 28.6586 -81.8042 187° South 223 257 17,100  Level Jacksonville Center
Mon 02:42:16 PM 28.6003 -81.8097 185° South 218 251 17,100  Level Jacksonville Center
Mon 02:43:16 PM 28.5378 -81.8103 180° South 223 257 17,100  Level Jacksonville Center
Mon 02:44:16 PM 28.4750 -81.7897 164° South 223 257 17,100  Level Jacksonville Center
Mon 02:46:21 PM 28.3383 -81.7506 166° South 240 276 17,100  Level Miami Center
Mon 02:47:21 PM 28.2722 -81.7311 165° South 240 276 17,100  Level Miami Center
Mon 02:48:21 PM 28.2103 -81.7122 165° South 240 276 17,100  Level Miami Center
Mon 02:49:21 PM 28.1419 -81.6928 166° South 245 282 17,100  Level Miami Center
Mon 02:50:21 PM 28.0758 -81.6733 165° South 245 282 17,100  Level Miami Center
Mon 02:51:21 PM 28.0133 -81.6731 180° South 239 275 17,100  Level Miami Center
Mon 02:52:21 PM 27.9544 -81.6894 194° South 224 258 17,100  Level Miami Center
Mon 02:53:21 PM 27.8953 -81.7081 196° South 224 258 17,100  Level Miami Center
Mon 02:54:21 PM 27.8319 -81.7289 196° South 224 258 17,100 -400 Level Miami Center
Mon 02:55:21 PM 27.7708 -81.7519 198° South 233 268 16,300 -750 Descending Miami Center
Mon 02:56:21 PM 27.7053 -81.7725 196° South 239 275 15,600 -850 Descending Miami Center
Mon 02:57:21 PM 27.6364 -81.7744 181° South 249 287 14,600 -1,200 Descending Miami Center
Mon 02:58:21 PM 27.5700 -81.7622 171° South 259 298 13,200 -1,150 Descending Miami Center
Mon 02:59:21 PM 27.4897 -81.7283 159° South 270 311 12,300 -850 Descending Miami Center
Mon 03:00:21 PM 27.4222 -81.6928 155° Southeast 275 316 11,500 -793 Descending Miami Center
Mon 03:01:22 PM 27.3544 -81.6594 156° South 275 316 10,700 -750 Descending Miami Center
Mon 03:02:21 PM 27.2889 -81.6239 154° Southeast 268 308 10,000 -756 Descending Miami Center
Mon 03:03:21 PM 27.2231 -81.5886 155° Southeast 268 308 9,200 -500 Descending Miami Center
Mon 03:04:21 PM 27.1717 -81.5656 158° South 268 308 9,000 -100 Descending Miami Center
Mon 03:05:21 PM 27.0978 -81.5297 157° South 255 293 9,000  Level Miami Center
Mon 03:06:22 PM 27.0361 -81.5017 158° South 250 288 9,000  Level Miami Center
Mon 03:07:21 PM 26.9847 -81.4717 153° Southeast 240 276 9,000  Level Miami Center
Mon 03:08:21 PM 26.9231 -81.4414 156° South 240 276 9,000  Level Miami Center
Mon 03:09:21 PM 26.8572 -81.4108 158° South 235 270 9,000 -250 Level Miami Center
Mon 03:10:21 PM 26.7931 -81.3919 165° South 235 270 8,500 -500 Descending Miami Center
Mon 03:11:21 PM 26.7281 -81.3989 185° South 235 270 8,000 -250 Descending Miami Center
Mon 03:12:21 PM 26.6697 -81.4011 182° South 235 270 8,000  Level Miami Center
Mon 03:13:21 PM 26.6089 -81.4036 182° South 235 270 8,000  Level Miami Center
Mon 03:14:22 PM 26.5464 -81.4033 180° South 220 253 8,000  Level Miami Center
Mon 03:16:00 PM 26.4526 -81.4183 194° South  Level FlightAware Approximate
Mon 03:23:00 PM 26.1728 -81.7096 246° West  Level FlightAware Approximate
Mon 03:24:00 PM 26.1500 -81.7667 246° West  Level FlightAware Approximate
Mon 03:25:00 PM 26.1524 -81.7756 246° West  Level Estimated
Mon 03:26:00 PM 26.1524 -81.7756 246° West  Level Estimated
Mon 03:27:00 PM 26.1524 -81.7756 246° West  Level Estimated
Mon 03:28:00 PM 26.1524 -81.7756 246° West  Level Estimated
Mon 03:29:00 PM 26.1524 -81.7756 246° West  Level Estimated
Mon 03:30:00 PM 26.1524 -81.7756 246° West  Level Estimated
Mon 03:31:00 PM 26.1524 -81.7756 246° West  Level Estimated
Mon 03:32:00 PM 26.1524 -81.7756 246° West  Level Estimated
Mon 03:33:00 PM 26.1524 -81.7756 246° West  Level Estimated
Mon 03:34:00 PM 26.1524 -81.7756 246° West  Level Estimated

Login

Don't have an account? Register now (free) for customized features, flight alerts, and more!